Time;durP1;ratioP1;P1;durP2;ratioP2;P2;SDS_P1;SDS_P2;PMS_P1;PMS_P2;Temp;Humidity;BMP_temperature;BMP_pressure;BME280_temperature;BME280_humidity;BME280_pressure;Samples;Min_cycle;Max_cycle;Signal;HPM_P1;HPM_P2
2022/01/28 00:01:49;;;;;;;;;7.00;7.00;;;;;13.34;41.65;97995.81;6290896;22;102309;-80
2022/01/28 00:04:17;;;;;;;;;8.00;6.00;;;;;13.34;41.88;97989.53;6297621;22;102346;-80
2022/01/28 00:06:44;;;;;;;;;10.00;9.00;;;;;13.31;42.38;97984.59;6295324;22;102114;-80
2022/01/28 00:09:11;;;;;;;;;8.50;7.00;;;;;13.30;42.59;97978.31;6296705;22;103668;-80
2022/01/28 00:11:39;;;;;;;;;8.00;6.25;;;;;13.31;42.48;97980.00;6293212;22;102310;-80
2022/01/28 00:38:31;;;;;;;;;7.00;7.00;;;;;13.20;41.87;97964.50;6303128;22;102075;-80
2022/01/28 00:40:58;;;;;;;;;5.00;4.50;;;;;13.19;41.79;97960.13;6295548;22;111983;-80
2022/01/28 00:43:25;;;;;;;;;8.75;7.25;;;;;13.18;41.58;97963.09;6293436;22;102445;-81
2022/01/28 00:45:53;;;;;;;;;8.00;8.00;;;;;13.15;41.72;97956.22;6274682;22;103283;-80
2022/01/28 00:48:20;;;;;;;;;10.00;6.25;;;;;13.16;41.57;97957.03;6256997;22;102170;-80
2022/01/28 00:50:47;;;;;;;;;6.75;5.75;;;;;13.13;42.51;97955.63;6298135;22;103937;-80
2022/01/28 00:53:14;;;;;;;;;9.00;7.00;;;;;13.11;42.46;97965.88;6276334;22;102130;-80
2022/01/28 00:55:41;;;;;;;;;6.00;5.00;;;;;13.12;42.16;97958.56;6298387;22;102122;-80
2022/01/28 00:58:08;;;;;;;;;9.25;8.00;;;;;13.13;41.67;97960.22;6303595;22;102309;-80
2022/01/28 01:00:35;;;;;;;;;5.50;5.00;;;;;13.12;41.88;97955.84;6304486;22;104665;-80
2022/01/28 01:03:02;;;;;;;;;6.50;6.50;;;;;13.12;42.67;97943.13;6248567;22;102543;-81
2022/01/28 01:05:32;;;;;;;;;8.00;5.75;;;;;13.11;42.60;97962.34;6285104;22;101943;-80
2022/01/28 01:08:01;;;;;;;;;5.25;4.25;;;;;13.10;42.55;97956.09;6292267;22;102209;-80
2022/01/28 01:10:28;;;;;;;;;8.00;6.00;;;;;13.10;42.07;97956.09;6293745;22;103542;-81
2022/01/28 01:12:55;;;;;;;;;6.25;5.00;;;;;13.09;42.03;97961.72;6293081;22;102139;-80
2022/01/28 01:15:27;;;;;;;;;7.75;5.25;;;;;13.07;42.24;97956.53;6300719;22;102526;-80
2022/01/28 01:18:03;;;;;;;;;9.00;7.00;;;;;13.06;41.68;97965.72;6290712;22;102459;-80
2022/01/28 01:20:42;;;;;;;;;8.75;7.25;;;;;13.07;42.37;97953.81;6299969;22;104096;-80
2022/01/28 01:23:10;;;;;;;;;5.25;5.25;;;;;13.06;41.68;97954.88;6286980;22;102289;-80
2022/01/28 01:25:45;;;;;;;;;6.75;4.50;;;;;13.06;42.53;97957.56;6289270;22;102244;-80
2022/01/28 01:28:13;;;;;;;;;8.00;7.00;;;;;13.06;41.90;97956.78;6296818;22;102626;-80
2022/01/28 01:30:43;;;;;;;;;6.25;5.00;;;;;13.03;42.43;97946.38;6287703;22;104070;-80
2022/01/28 01:33:10;;;;;;;;;8.25;6.00;;;;;13.00;41.87;97953.09;6266705;22;102529;-80
2022/01/28 01:35:38;;;;;;;;;8.50;5.75;;;;;12.99;41.74;97943.28;6281541;22;102445;-80
2022/01/28 01:38:06;;;;;;;;;7.00;5.00;;;;;12.96;41.74;97943.78;6298476;22;102167;-81
2022/01/28 01:40:42;;;;;;;;;6.50;6.00;;;;;12.96;42.16;97943.78;6297551;22;108788;-81
2022/01/28 01:43:33;;;;;;;;;6.75;5.00;;;;;12.98;41.89;97945.19;6292591;22;102403;-80
2022/01/28 01:54:01;;;;;;;;;4.25;4.25;;;;;12.97;42.12;97948.13;6274044;22;102140;-81
2022/01/28 01:56:28;;;;;;;;;8.00;6.75;;;;;12.94;42.71;97940.44;6285759;22;103338;-80
2022/01/28 01:58:56;;;;;;;;;3.25;3.25;;;;;12.94;42.07;97949.41;6293978;22;102189;-80
2022/01/28 02:01:23;;;;;;;;;7.00;4.00;;;;;12.92;42.23;97942.59;6300329;22;104021;-81
2022/01/28 02:03:51;;;;;;;;;3.25;3.00;;;;;12.92;42.36;97929.03;6257533;22;102339;-80
2022/01/28 02:06:19;;;;;;;;;6.25;4.00;;;;;12.92;42.20;97937.16;6195006;22;102467;-80
2022/01/28 02:08:46;;;;;;;;;7.75;4.75;;;;;12.89;42.15;97916.72;6213843;22;102180;-80
2022/01/28 02:11:13;;;;;;;;;3.75;3.00;;;;;12.89;42.70;97927.56;6244124;22;103948;-80
2022/01/28 02:13:41;;;;;;;;;7.25;5.00;;;;;12.89;42.85;97934.88;6257291;22;111386;-80
2022/01/28 02:16:09;;;;;;;;;5.00;4.00;;;;;12.87;42.83;97939.72;6289672;22;102444;-81
2022/01/28 02:18:36;;;;;;;;;5.00;4.50;;;;;12.86;42.17;97938.91;6296802;22;102442;-80
2022/01/28 02:21:07;;;;;;;;;4.00;4.00;;;;;12.87;41.69;97940.56;6292090;22;103985;-80
2022/01/28 02:23:35;;;;;;;;;5.50;3.00;;;;;12.85;42.10;97937.25;6299870;22;102236;-80
2022/01/28 02:26:03;;;;;;;;;5.75;4.50;;;;;12.84;42.31;97941.00;6293041;22;102252;-80
2022/01/28 02:28:34;;;;;;;;;6.25;4.25;;;;;12.83;42.77;97942.06;6293130;22;102169;-80
2022/01/28 02:31:02;;;;;;;;;4.00;4.00;;;;;12.85;41.71;97936.41;6280654;22;103026;-80
2022/01/28 02:33:30;;;;;;;;;4.25;4.00;;;;;12.84;41.99;97929.31;6299428;22;102469;-80
2022/01/28 02:36:04;;;;;;;;;3.50;2.75;;;;;12.84;42.59;97923.91;6277262;22;104836;-80
2022/01/28 02:38:32;;;;;;;;;5.00;3.75;;;;;12.85;41.73;97930.97;6291469;22;102222;-80
2022/01/28 02:41:01;;;;;;;;;6.00;4.00;;;;;12.84;41.67;97945.59;6276771;22;104213;-81
2022/01/28 02:43:41;;;;;;;;;3.25;3.00;;;;;12.84;42.60;97945.59;6277184;22;102146;-80
2022/01/28 02:46:14;;;;;;;;;5.00;3.00;;;;;12.82;42.27;97953.16;6238300;22;102070;-80
2022/01/28 02:48:53;;;;;;;;;6.00;3.50;;;;;12.81;41.83;97948.78;6291663;22;102542;-80
2022/01/28 02:51:22;;;;;;;;;6.00;4.00;;;;;12.81;42.06;97932.50;6300106;22;108716;-80
2022/01/28 02:53:55;;;;;;;;;3.50;3.00;;;;;12.81;41.90;97940.66;6301021;22;102279;-80
2022/01/28 02:59:04;;;;;;;;;6.50;4.00;;;;;12.78;42.32;97935.69;6303649;22;102442;-80
2022/01/28 03:01:31;;;;;;;;;3.75;3.00;;;;;12.75;41.77;97936.13;6304850;22;103952;-80
2022/01/28 03:04:01;;;;;;;;;2.50;2.50;;;;;12.73;41.98;97925.53;6295801;22;102308;-80
2022/01/28 03:06:28;;;;;;;;;4.25;4.25;;;;;12.71;42.76;97924.94;6309930;22;102382;-80
2022/01/28 03:09:00;;;;;;;;;4.00;3.00;;;;;12.70;42.00;97917.03;6308584;22;102516;-80
2022/01/28 03:11:43;;;;;;;;;3.00;2.00;;;;;12.70;42.47;97917.03;6302051;22;109062;-80
2022/01/28 03:16:55;;;;;;;;;4.00;3.00;;;;;12.72;42.85;97923.03;6305544;22;102248;-80
2022/01/28 03:19:25;;;;;;;;;3.00;2.00;;;;;12.73;42.66;97927.41;6306050;22;105082;-80
2022/01/28 03:21:56;;;;;;;;;3.75;3.00;;;;;12.73;42.80;97932.84;6305291;22;104146;-80
2022/01/28 03:24:24;;;;;;;;;2.75;2.75;;;;;12.72;42.47;97934.72;6305059;22;102692;-80
2022/01/28 03:26:55;;;;;;;;;2.75;2.25;;;;;12.73;41.78;97930.97;6302135;22;102633;-80
2022/01/28 03:29:22;;;;;;;;;2.50;2.00;;;;;12.72;42.35;97929.31;6314483;22;103358;-80
2022/01/28 03:31:50;;;;;;;;;3.00;3.00;;;;;12.72;41.89;97940.16;6300311;22;103965;-80
2022/01/28 03:34:17;;;;;;;;;3.00;3.00;;;;;12.72;41.68;97931.19;6302670;22;102477;-80
2022/01/28 03:36:44;;;;;;;;;6.00;4.00;;;;;12.69;42.06;97932.50;6295067;22;102376;-80
2022/01/28 03:39:11;;;;;;;;;3.00;2.25;;;;;12.70;41.68;97922.47;6304535;22;102268;-80
2022/01/28 03:41:38;;;;;;;;;2.75;2.75;;;;;12.71;42.26;97915.97;6300473;22;108868;-80
2022/01/28 03:44:06;;;;;;;;;3.75;3.00;;;;;12.68;42.24;97921.84;6304476;22;102167;-81
2022/01/28 03:46:33;;;;;;;;;3.00;2.25;;;;;12.65;42.47;97906.06;6306122;22;102238;-80
2022/01/28 03:49:00;;;;;;;;;2.00;2.00;;;;;12.66;42.81;97921.25;6304592;22;102141;-80
2022/01/28 03:51:27;;;;;;;;;2.75;2.00;;;;;12.62;42.40;97922.78;6267445;22;109287;-80
2022/01/28 03:53:55;;;;;;;;;2.00;2.00;;;;;12.61;41.78;97926.56;6300858;22;102424;-80
2022/01/28 03:56:23;;;;;;;;;2.00;2.00;;;;;12.60;42.20;97919.47;6303320;22;102668;-80
2022/01/28 03:58:50;;;;;;;;;3.00;2.75;;;;;12.59;42.78;97909.69;6310584;22;102223;-80
2022/01/28 04:01:22;;;;;;;;;1.00;1.00;;;;;12.61;42.15;97918.44;6304069;22;104072;-80
2022/01/28 04:12:08;;;;;;;;;2.00;2.00;;;;;12.70;42.46;97922.47;6302503;22;108885;-80
2022/01/28 04:14:48;;;;;;;;;2.00;2.00;;;;;12.74;41.71;97939.94;6303109;22;102255;-80
2022/01/28 04:17:20;;;;;;;;;1.00;1.00;;;;;12.77;41.84;97928.59;6297644;22;102338;-80
2022/01/28 04:19:48;;;;;;;;;2.00;2.00;;;;;12.80;42.24;97931.69;6304334;22;102276;-80
2022/01/28 04:22:15;;;;;;;;;3.00;3.00;;;;;12.84;41.94;97926.59;6267084;22;104125;-82
2022/01/28 04:24:42;;;;;;;;;2.00;2.00;;;;;12.87;43.05;97924.28;6306447;22;102425;-81
2022/01/28 04:27:09;;;;;;;;;1.00;1.00;;;;;12.94;42.02;97926.88;6288965;22;102102;-81
2022/01/28 04:29:36;;;;;;;;;1.50;1.50;;;;;12.97;42.14;97913.66;6298140;22;102110;-81
2022/01/28 04:32:04;;;;;;;;;3.75;2.00;;;;;12.98;41.49;97909.91;6286091;22;104008;-81
2022/01/28 04:34:31;;;;;;;;;1.75;1.75;;;;;13.02;42.23;97910.25;6269137;22;102270;-81
2022/01/28 04:39:44;;;;;;;;;1.75;1.50;;;;;13.08;41.58;97920.19;6299120;22;102601;-81
2022/01/28 04:44:58;;;;;;;;;3.75;1.25;;;;;13.12;42.35;97926.00;6292320;22;102493;-81
2022/01/28 04:47:37;;;;;;;;;2.00;1.00;;;;;13.12;41.37;97924.13;6299655;22;102148;-81
2022/01/28 04:50:18;;;;;;;;;3.00;2.00;;;;;13.13;41.74;97928.50;6307451;22;102520;-80
2022/01/28 05:01:02;;;;;;;;;4.00;2.75;;;;;13.13;42.08;97933.91;6296218;22;102554;-80
2022/01/28 05:27:12;;;;;;;;;1.00;1.00;;;;;13.10;42.09;97961.50;6302735;22;102014;-80
2022/01/28 05:29:39;;;;;;;;;1.75;1.75;;;;;13.08;41.20;97963.63;6276808;22;102114;-81
2022/01/28 05:32:08;;;;;;;;;1.00;1.00;;;;;13.09;41.29;97965.28;6294086;22;102069;-81
2022/01/28 05:34:35;;;;;;;;;3.00;2.75;;;;;13.09;41.13;97967.16;6277889;22;104013;-81
2022/01/28 05:37:02;;;;;;;;;3.00;2.00;;;;;13.08;41.35;97971.75;6307065;22;101950;-81
2022/01/28 05:39:30;;;;;;;;;2.00;2.00;;;;;13.07;41.48;97969.25;6290714;22;102303;-81
2022/01/28 05:41:57;;;;;;;;;1.75;1.75;;;;;13.05;41.97;97969.53;6307566;22;102587;-81
2022/01/28 05:44:24;;;;;;;;;1.00;1.00;;;;;13.05;41.62;97977.66;6301227;22;104039;-81
2022/01/28 05:46:52;;;;;;;;;2.25;1.00;;;;;13.05;41.13;97976.81;6299760;22;102406;-80
2022/01/28 05:49:19;;;;;;;;;1.00;1.00;;;;;13.04;42.17;97986.03;6300726;22;104419;-81
2022/01/28 05:51:46;;;;;;;;;1.25;1.00;;;;;13.02;41.69;97986.25;6304522;22;102274;-81
2022/01/28 05:54:13;;;;;;;;;1.00;1.00;;;;;13.02;41.26;97997.09;6309116;22;104025;-81
2022/01/28 05:56:40;;;;;;;;;1.00;1.00;;;;;13.00;42.00;97999.25;6303395;22;101908;-81
2022/01/28 05:59:07;;;;;;;;;1.50;1.50;;;;;12.98;41.47;97990.47;6296169;22;101992;-81
2022/01/28 06:01:34;;;;;;;;;1.25;1.25;;;;;12.93;41.62;97995.78;6302068;22;102134;-80
2022/01/28 06:04:02;;;;;;;;;1.00;0.00;;;;;12.90;41.34;97996.25;6264292;22;103964;-81
2022/01/28 06:06:30;;;;;;;;;1.00;1.00;;;;;12.90;42.20;98004.38;6301956;22;102753;-81
2022/01/28 06:08:57;;;;;;;;;1.00;1.00;;;;;12.90;41.81;98007.09;6304656;22;102157;-80
2022/01/28 06:11:24;;;;;;;;;0.75;0.75;;;;;12.89;41.57;98002.72;6307649;22;110731;-81
2022/01/28 06:13:51;;;;;;;;;1.00;1.00;;;;;12.89;42.41;97997.28;6297971;22;104068;-80
2022/01/28 06:16:18;;;;;;;;;2.00;1.00;;;;;12.90;41.95;98009.81;6299839;22;102139;-80
2022/01/28 06:18:46;;;;;;;;;2.00;1.75;;;;;12.89;42.06;98010.84;6305879;22;102293;-81
2022/01/28 06:21:13;;;;;;;;;1.25;1.00;;;;;12.87;41.93;98023.84;6309781;22;102139;-81
2022/01/28 06:23:40;;;;;;;;;1.75;0.50;;;;;12.88;42.44;98017.34;6293897;22;109062;-81
2022/01/28 06:26:07;;;;;;;;;1.00;1.00;;;;;12.86;42.36;98009.44;6299104;22;102487;-81
2022/01/28 06:28:34;;;;;;;;;1.75;1.75;;;;;12.86;42.08;98008.63;6293587;22;102455;-81
2022/01/28 06:31:01;;;;;;;;;1.50;1.00;;;;;12.85;41.65;98020.53;6299861;22;102688;-79
2022/01/28 06:33:28;;;;;;;;;2.00;1.00;;;;;12.84;42.34;98010.72;6272942;22;103992;-79
2022/01/28 06:35:55;;;;;;;;;3.00;2.00;;;;;12.82;41.96;98023.69;6302011;22;105029;-81
2022/01/28 06:38:22;;;;;;;;;1.25;1.00;;;;;12.82;41.75;98015.56;6304600;22;102141;-81
2022/01/28 06:40:50;;;;;;;;;1.25;1.25;;;;;12.80;42.36;98032.06;6307854;22;102447;-81
2022/01/28 06:43:17;;;;;;;;;1.00;1.00;;;;;12.81;42.13;98024.75;6294905;22;104116;-80
2022/01/28 06:45:44;;;;;;;;;1.00;1.00;;;;;12.77;42.18;98020.84;6304611;22;102472;-81
2022/01/28 06:48:11;;;;;;;;;0.75;0.75;;;;;12.74;41.69;98037.59;6300948;22;104003;-81
2022/01/28 06:50:39;;;;;;;;;3.00;2.50;;;;;12.73;41.64;98028.63;6286710;22;102723;-81
2022/01/28 06:53:07;;;;;;;;;1.00;1.00;;;;;12.72;42.22;98034.25;6295833;22;103937;-81
2022/01/28 06:55:34;;;;;;;;;1.00;1.00;;;;;12.72;41.86;98045.94;6301634;22;102212;-81
2022/01/28 06:58:03;;;;;;;;;2.00;1.00;;;;;12.71;42.30;98032.59;6302509;22;102190;-81
2022/01/28 07:00:39;;;;;;;;;1.25;0.25;;;;;12.69;42.42;98049.13;6276644;22;102643;-81
2022/01/28 07:03:08;;;;;;;;;1.75;1.75;;;;;12.68;42.58;98041.22;6272932;22;104099;-81
2022/01/28 07:05:35;;;;;;;;;1.00;1.00;;;;;12.68;42.49;98033.91;6302512;22;101982;-81
2022/01/28 07:08:03;;;;;;;;;1.00;1.00;;;;;12.69;42.43;98040.16;6301183;22;102498;-81
2022/01/28 07:10:30;;;;;;;;;0.75;0.75;;;;;12.69;42.01;98051.00;6301592;22;102426;-81
2022/01/28 07:12:57;;;;;;;;;1.50;1.50;;;;;12.69;41.72;98053.72;6311515;22;104161;-81
2022/01/28 07:15:25;;;;;;;;;1.00;1.00;;;;;12.71;42.49;98051.59;6305488;22;102272;-81
2022/01/28 07:17:56;;;;;;;;;1.00;1.00;;;;;12.70;41.64;98052.66;6300703;22;102359;-80
2022/01/28 07:20:24;;;;;;;;;1.00;0.00;;;;;12.70;42.51;98058.09;6279945;22;102286;-81
2022/01/28 07:22:51;;;;;;;;;1.00;1.00;;;;;12.70;41.83;98047.25;6311796;22;104100;-81
2022/01/28 07:25:18;;;;;;;;;1.00;1.00;;;;;12.68;42.63;98052.06;6308395;22;102320;-81
2022/01/28 07:27:45;;;;;;;;;1.00;1.00;;;;;12.66;41.66;98057.69;6310363;22;102452;-81
2022/01/28 07:30:14;;;;;;;;;1.00;1.00;;;;;12.66;42.62;98059.56;6312354;22;102181;-81
2022/01/28 07:32:41;;;;;;;;;2.00;2.00;;;;;12.64;42.58;98059.00;6309087;22;103984;-81
2022/01/28 07:35:11;;;;;;;;;2.00;1.00;;;;;12.60;42.56;98057.78;6279652;22;102150;-81
2022/01/28 07:37:38;;;;;;;;;2.00;1.00;;;;;12.60;41.99;98058.63;6302815;22;102429;-81
2022/01/28 07:40:06;;;;;;;;;1.50;1.50;;;;;12.59;42.29;98051.53;6300608;22;102423;-81
2022/01/28 07:42:34;;;;;;;;;1.00;1.00;;;;;12.58;42.67;98059.88;6308148;22;104141;-81
2022/01/28 07:45:01;;;;;;;;;0.75;0.75;;;;;12.56;42.13;98062.84;6309508;22;102209;-81
2022/01/28 07:47:28;;;;;;;;;1.00;0.25;;;;;12.58;42.49;98059.88;6307844;22;102261;-81
2022/01/28 07:49:55;;;;;;;;;2.00;1.00;;;;;12.60;42.57;98074.06;6301164;22;102281;-81
2022/01/28 07:52:22;;;;;;;;;3.00;1.75;;;;;12.59;41.97;98073.25;6274773;22;103984;-80
2022/01/28 07:54:50;;;;;;;;;1.00;1.00;;;;;12.61;42.38;98075.72;6310645;22;102305;-80
2022/01/28 07:57:17;;;;;;;;;1.00;1.00;;;;;12.61;42.44;98067.59;6303989;22;102136;-80
2022/01/28 07:59:44;;;;;;;;;1.50;1.00;;;;;12.62;41.85;98083.63;6309279;22;102100;-81
2022/01/28 08:02:12;;;;;;;;;1.00;0.00;;;;;12.61;41.77;98075.72;6303878;22;104004;-81
2022/01/28 08:04:39;;;;;;;;;0.00;0.00;;;;;12.63;41.93;98088.00;6283327;22;102384;-81
2022/01/28 08:07:06;;;;;;;;;2.00;1.00;;;;;12.62;42.16;98093.63;6310624;22;102543;-81
2022/01/28 08:09:33;;;;;;;;;2.00;1.00;;;;;12.61;42.70;98092.00;6309678;22;101954;-81
2022/01/28 08:12:00;;;;;;;;;1.00;1.00;;;;;12.61;41.59;98103.66;6299328;22;104023;-81
2022/01/28 08:14:30;;;;;;;;;1.00;1.00;;;;;12.59;42.29;98097.66;6308980;22;105209;-81
2022/01/28 08:16:58;;;;;;;;;0.00;0.00;;;;;12.55;41.99;98115.44;6306731;22;102185;-81
2022/01/28 08:19:25;;;;;;;;;0.75;0.75;;;;;12.50;41.90;98116.09;6306253;22;102664;-80
2022/01/28 08:21:52;;;;;;;;;0.50;0.50;;;;;12.48;42.12;98123.63;6305553;22;104064;-81
2022/01/28 08:24:19;;;;;;;;;1.00;1.00;;;;;12.48;42.06;98126.31;6301503;22;102253;-80
2022/01/28 08:26:46;;;;;;;;;1.25;1.00;;;;;12.50;41.51;98126.13;6312568;22;102551;-81
2022/01/28 08:29:13;;;;;;;;;1.00;0.75;;;;;12.49;42.60;98125.28;6299209;22;102170;-81
2022/01/28 08:31:41;;;;;;;;;0.00;0.00;;;;;12.49;41.67;98138.84;6297196;22;104107;-81
2022/01/28 08:34:08;;;;;;;;;1.00;1.00;;;;;12.49;42.67;98144.25;6298774;22;102091;-81
2022/01/28 08:36:35;;;;;;;;;1.00;1.00;;;;;12.49;42.70;98138.00;6280076;22;102595;-81
2022/01/28 08:39:04;;;;;;;;;2.00;1.00;;;;;12.48;42.17;98137.19;6304580;22;102129;-81
2022/01/28 08:41:36;;;;;;;;;0.25;0.00;;;;;12.49;42.75;98144.25;6293410;22;104329;-81
2022/01/28 08:44:03;;;;;;;;;1.00;1.00;;;;;12.48;42.22;98141.75;6299511;22;102140;-81
2022/01/28 08:46:31;;;;;;;;;0.00;0.00;;;;;12.49;42.64;98141.56;6287642;22;102164;-81
2022/01/28 08:48:58;;;;;;;;;1.00;1.00;;;;;12.52;41.97;98153.81;6305989;22;102206;-80
2022/01/28 08:51:25;;;;;;;;;1.00;1.00;;;;;12.53;42.16;98156.31;6314050;22;104076;-82
2022/01/28 08:53:54;;;;;;;;;1.00;1.00;;;;;12.52;41.56;98154.66;6301738;22;102237;-80
2022/01/28 08:56:21;;;;;;;;;0.25;0.25;;;;;12.52;42.41;98168.22;6292780;22;102129;-82
2022/01/28 08:58:48;;;;;;;;;1.00;0.25;;;;;12.50;42.14;98178.47;6308972;22;102266;-81
2022/01/28 09:01:15;;;;;;;;;1.00;1.00;;;;;12.51;41.75;98185.56;6293704;22;108656;-80
2022/01/28 09:03:44;;;;;;;;;0.25;0.25;;;;;12.50;42.27;98183.91;6304381;22;102496;-80
2022/01/28 09:06:11;;;;;;;;;0.50;0.00;;;;;12.48;42.56;98188.69;6311867;22;102271;-81
2022/01/28 09:08:40;;;;;;;;;1.00;1.00;;;;;12.46;42.66;98198.13;6305821;22;102149;-80
2022/01/28 09:13:50;;;;;;;;;3.25;1.00;;;;;12.42;42.61;98197.75;6293541;22;102092;-80
2022/01/28 09:16:17;;;;;;;;;1.00;1.00;;;;;12.43;41.90;98188.53;6314186;22;102046;-81
2022/01/28 09:18:44;;;;;;;;;1.00;1.00;;;;;12.45;42.46;98191.03;6275578;22;102390;-81
2022/01/28 09:21:12;;;;;;;;;2.00;1.00;;;;;12.44;42.02;98206.47;6270002;22;104026;-80
2022/01/28 09:23:39;;;;;;;;;1.00;1.00;;;;;12.43;42.75;98207.50;6311159;22;104444;-81
2022/01/28 09:26:06;;;;;;;;;1.00;1.00;;;;;12.45;42.60;98210.84;6302002;22;102226;-81
2022/01/28 09:28:33;;;;;;;;;1.00;0.00;;;;;12.45;42.37;98213.56;6305078;22;102111;-81
2022/01/28 09:31:00;;;;;;;;;0.50;0.50;;;;;12.46;42.08;98215.22;6281158;22;104014;-81
2022/01/28 09:33:27;;;;;;;;;2.50;0.75;;;;;12.47;41.60;98222.28;6308644;22;102511;-80
2022/01/28 09:35:54;;;;;;;;;1.75;1.00;;;;;12.46;42.27;98214.38;6309623;22;102297;-81
2022/01/28 09:38:21;;;;;;;;;1.25;1.25;;;;;12.45;42.12;98215.44;6308572;22;102351;-80
2022/01/28 09:40:49;;;;;;;;;0.00;0.00;;;;;12.46;42.40;98220.66;6308064;22;103993;-81
2022/01/28 09:43:16;;;;;;;;;0.50;0.50;;;;;12.42;41.89;98233.00;6311502;22;102424;-81
2022/01/28 09:45:47;;;;;;;;;1.00;1.00;;;;;12.45;42.59;98232.53;6311298;22;102250;-81
2022/01/28 09:48:16;;;;;;;;;0.50;0.50;;;;;12.45;41.90;98231.72;6276548;22;102803;-80
2022/01/28 09:50:44;;;;;;;;;1.25;1.00;;;;;12.43;41.84;98231.91;6277175;22;103970;-81
2022/01/28 09:53:11;;;;;;;;;2.00;1.00;;;;;12.44;41.79;98225.44;6307291;22;102351;-81
2022/01/28 09:55:41;;;;;;;;;1.25;1.00;;;;;12.41;42.73;98230.50;6307731;22;102378;-81
2022/01/28 09:58:08;;;;;;;;;2.00;1.00;;;;;12.38;42.39;98239.09;6304218;22;102433;-81
2022/01/28 10:00:35;;;;;;;;;0.00;0.00;;;;;12.37;42.40;98243.66;6278542;22;104154;-80
2022/01/28 10:03:10;;;;;;;;;1.00;0.00;;;;;12.38;42.79;98239.88;6307697;22;103076;-80
2022/01/28 10:05:39;;;;;;;;;1.00;0.00;;;;;12.40;42.65;98226.13;6301951;22;102622;-80
2022/01/28 10:08:19;;;;;;;;;0.75;0.50;;;;;12.39;43.15;98233.41;6310215;22;102549;-80
2022/01/28 10:11:09;;;;;;;;;1.00;0.75;;;;;12.40;42.91;98231.53;6309131;22;111200;-81
2022/01/28 10:13:53;;;;;;;;;1.50;0.75;;;;;12.39;42.36;98240.72;6307817;22;102350;-80
2022/01/28 10:16:30;;;;;;;;;1.25;1.00;;;;;12.40;42.42;98237.78;6305315;22;102510;-81
2022/01/28 10:18:59;;;;;;;;;2.00;1.00;;;;;12.41;42.80;98244.88;6309159;22;102341;-81
2022/01/28 10:21:27;;;;;;;;;1.00;0.75;;;;;12.40;42.66;98243.22;6311599;22;104845;-80
2022/01/28 10:24:18;;;;;;;;;2.75;2.00;;;;;12.40;42.77;98251.34;6306101;22;102610;-80
2022/01/28 10:26:45;;;;;;;;;0.00;0.00;;;;;12.39;43.58;98254.28;6303476;22;102343;-80
2022/01/28 10:29:15;;;;;;;;;1.75;1.50;;;;;12.37;42.90;98268.06;6307073;22;102505;-81
2022/01/28 10:31:49;;;;;;;;;1.00;1.00;;;;;12.40;42.53;98247.81;6301773;22;104158;-81
2022/01/28 10:34:25;;;;;;;;;1.75;1.75;;;;;12.40;43.07;98253.22;6283753;22;102420;-81
2022/01/28 10:37:06;;;;;;;;;1.00;1.00;;;;;12.41;43.12;98257.59;6299038;22;102175;-80
2022/01/28 10:39:44;;;;;;;;;1.00;1.00;;;;;12.39;43.52;98259.69;6311570;22;102108;-80
2022/01/28 10:42:13;;;;;;;;;1.50;1.00;;;;;12.42;42.88;98267.41;6311584;22;103967;-80
2022/01/28 10:44:58;;;;;;;;;1.00;0.00;;;;;12.42;43.34;98267.41;6306920;22;102048;-80
2022/01/28 10:47:39;;;;;;;;;2.00;1.00;;;;;12.38;42.93;98269.72;6307407;22;102540;-80
2022/01/28 10:50:27;;;;;;;;;1.50;1.50;;;;;12.39;43.49;98279.50;6310686;22;102399;-80
2022/01/28 10:53:14;;;;;;;;;0.25;0.25;;;;;12.40;42.87;98270.34;6301845;22;109028;-80
2022/01/28 10:55:48;;;;;;;;;0.00;0.00;;;;;12.41;43.01;98295.56;6302532;22;102078;-80
2022/01/28 10:58:17;;;;;;;;;1.00;0.75;;;;;12.42;43.12;98284.50;6308691;22;110702;-79
2022/01/28 11:00:48;;;;;;;;;0.75;0.75;;;;;12.41;43.11;98290.16;6312939;22;102841;-79
2022/01/28 11:03:17;;;;;;;;;1.00;1.00;;;;;12.40;43.12;98292.03;6306163;22;110153;-79
2022/01/28 11:05:44;;;;;;;;;1.00;1.00;;;;;12.37;42.77;98295.19;6278775;22;102373;-80
2022/01/28 11:08:13;;;;;;;;;1.00;1.00;;;;;12.39;42.55;98305.78;6298685;22;102459;-79
2022/01/28 11:10:40;;;;;;;;;1.00;1.00;;;;;12.41;42.52;98303.69;6304971;22;102500;-79
2022/01/28 11:13:07;;;;;;;;;0.75;0.75;;;;;12.40;42.42;98300.16;6307216;22;103975;-79
2022/01/28 11:15:35;;;;;;;;;1.00;1.00;;;;;12.41;42.91;98303.69;6309253;22;102559;-85
2022/01/28 11:18:04;;;;;;;;;2.75;1.00;;;;;12.40;43.13;98308.28;6307378;22;102172;-79
2022/01/28 11:21:04;;;;;;;;;2.00;1.00;;;;;12.40;42.41;98318.31;6308738;22;102434;-79
2022/01/28 11:24:04;;;;;;;;;2.00;1.50;;;;;12.40;42.32;98313.72;6255375;22;110029;-79
2022/01/28 11:26:49;;;;;;;;;2.50;1.00;;;;;12.40;42.59;98313.72;6236885;22;105259;-79
2022/01/28 11:29:21;;;;;;;;;1.00;1.00;;;;;12.39;42.75;98322.91;6309130;22;105555;-79
2022/01/28 11:31:50;;;;;;;;;1.00;1.00;;;;;12.36;42.22;98328.75;6306462;22;101846;-79
2022/01/28 11:34:27;;;;;;;;;0.00;0.00;;;;;12.33;42.32;98326.50;6284174;22;109933;-79
2022/01/28 11:36:59;;;;;;;;;1.25;1.25;;;;;12.32;42.53;98326.72;6309596;22;102418;-79
2022/01/28 11:39:30;;;;;;;;;3.00;1.50;;;;;12.30;42.66;98329.63;6283452;22;110930;-79
2022/01/28 11:42:07;;;;;;;;;3.00;2.00;;;;;12.34;42.96;98343.56;6313028;22;102400;-79
2022/01/28 11:44:40;;;;;;;;;1.00;1.00;;;;;12.33;42.49;98337.34;6311430;22;103831;-79
2022/01/28 11:47:14;;;;;;;;;1.00;1.00;;;;;12.34;42.66;98352.53;6312723;22;102364;-79
2022/01/28 11:49:52;;;;;;;;;1.00;1.00;;;;;12.33;42.51;98345.47;6282184;22;102481;-79
2022/01/28 11:52:29;;;;;;;;;0.00;0.00;;;;;12.35;42.70;98350.66;6304107;22;102561;-79
2022/01/28 11:55:21;;;;;;;;;1.25;1.25;;;;;12.35;43.21;98350.66;6305563;22;108987;-79
2022/01/28 11:58:08;;;;;;;;;0.75;0.75;;;;;12.35;42.39;98354.22;6301372;22;101962;-79
2022/01/28 12:00:47;;;;;;;;;1.00;1.00;;;;;12.35;42.77;98350.66;6304841;22;102453;-79
2022/01/28 12:03:18;;;;;;;;;1.00;1.00;;;;;12.33;43.22;98350.91;6307136;22;102157;-78
2022/01/28 12:05:48;;;;;;;;;1.50;1.00;;;;;12.35;42.56;98350.66;6309856;22;103998;-78
2022/01/28 12:08:16;;;;;;;;;2.75;1.25;;;;;12.33;42.13;98350.91;6310753;22;102606;-78
2022/01/28 12:10:45;;;;;;;;;2.00;1.00;;;;;12.32;42.51;98351.94;6303864;22;102014;-78
2022/01/28 12:13:16;;;;;;;;;0.75;0.75;;;;;12.32;42.88;98351.94;6311155;22;102180;-78
2022/01/28 12:18:43;;;;;;;;;2.00;0.00;;;;;12.30;42.37;98358.63;6301360;22;103028;-78
2022/01/28 12:21:18;;;;;;;;;1.00;1.00;;;;;12.25;42.90;98367.41;6299452;22;102183;-78
2022/01/28 12:23:47;;;;;;;;;1.50;0.50;;;;;12.25;43.00;98363.84;6309801;22;102160;-78
2022/01/28 12:26:17;;;;;;;;;1.00;0.25;;;;;12.27;42.40;98370.75;6315007;22;103984;-78
2022/01/28 12:28:45;;;;;;;;;2.00;1.00;;;;;12.28;42.54;98368.88;6302712;22;102239;-78
2022/01/28 12:31:13;;;;;;;;;1.00;0.50;;;;;12.24;42.82;98371.19;6311643;22;102120;-78
2022/01/28 12:33:51;;;;;;;;;1.00;1.00;;;;;12.24;42.60;98390.16;6255828;22;102235;-78
2022/01/28 12:36:30;;;;;;;;;1.00;0.75;;;;;12.23;43.01;98372.22;6310296;22;108892;-78
2022/01/28 12:39:21;;;;;;;;;1.00;1.00;;;;;12.24;42.85;98392.88;6311601;22;102233;-78
2022/01/28 12:41:55;;;;;;;;;1.00;1.00;;;;;12.30;43.05;98405.53;6322361;22;102401;-78
2022/01/28 12:44:23;;;;;;;;;1.00;1.00;;;;;12.32;42.22;98403.47;6321203;22;102101;-78
2022/01/28 12:47:03;;;;;;;;;1.50;1.00;;;;;12.35;42.76;98407.59;6270279;22;103509;-78
2022/01/28 12:49:32;;;;;;;;;1.00;1.00;;;;;12.39;42.29;98408.81;6310585;22;102373;-78
2022/01/28 12:52:01;;;;;;;;;0.00;0.00;;;;;12.44;42.68;98414.44;6306483;22;102598;-78
2022/01/28 12:54:44;;;;;;;;;0.00;0.00;;;;;12.47;42.35;98414.81;6308686;22;102300;-78
2022/01/28 12:57:15;;;;;;;;;1.00;1.00;;;;;12.51;42.56;98432.34;6308832;22;103952;-78
2022/01/28 12:59:45;;;;;;;;;1.00;1.00;;;;;12.53;42.46;98421.25;6305353;22;105024;-78
2022/01/28 13:02:12;;;;;;;;;1.75;1.00;;;;;12.57;42.77;98427.06;6272590;22;102344;-78
2022/01/28 13:05:10;;;;;;;;;1.00;1.00;;;;;12.61;42.28;98434.56;6306421;22;102866;-80
2022/01/28 13:10:32;;;;;;;;;1.00;1.00;;;;;12.67;42.33;98446.44;6306816;22;102387;-79